sensor_id;sensor_type;location;lat;lon;timestamp;P1;durP1;ratioP1;P2;durP2;ratioP2
71253;SDS011;59019;47.638;18.966;2022-07-30T00:01:23;5.37;;;3.57;;
71253;SDS011;59019;47.638;18.966;2022-07-30T00:03:49;6.50;;;3.60;;
71253;SDS011;59019;47.638;18.966;2022-07-30T00:06:16;6.67;;;3.80;;
71253;SDS011;59019;47.638;18.966;2022-07-30T00:08:42;7.25;;;3.40;;
71253;SDS011;59019;47.638;18.966;2022-07-30T00:11:07;5.93;;;3.83;;
71253;SDS011;59019;47.638;18.966;2022-07-30T00:13:33;7.35;;;3.83;;
71253;SDS011;59019;47.638;18.966;2022-07-30T00:15:59;5.90;;;3.53;;
71253;SDS011;59019;47.638;18.966;2022-07-30T00:18:24;5.70;;;3.27;;
71253;SDS011;59019;47.638;18.966;2022-07-30T00:20:50;6.03;;;3.60;;
71253;SDS011;59019;47.638;18.966;2022-07-30T00:23:16;5.13;;;3.60;;
71253;SDS011;59019;47.638;18.966;2022-07-30T00:25:41;6.37;;;3.80;;
71253;SDS011;59019;47.638;18.966;2022-07-30T00:28:07;5.20;;;3.43;;
71253;SDS011;59019;47.638;18.966;2022-07-30T00:30:32;5.72;;;3.90;;
71253;SDS011;59019;47.638;18.966;2022-07-30T00:32:58;5.80;;;3.70;;
71253;SDS011;59019;47.638;18.966;2022-07-30T00:35:23;6.37;;;3.80;;
71253;SDS011;59019;47.638;18.966;2022-07-30T00:37:49;6.18;;;4.20;;
71253;SDS011;59019;47.638;18.966;2022-07-30T00:40:14;5.97;;;3.70;;
71253;SDS011;59019;47.638;18.966;2022-07-30T00:42:42;6.23;;;3.70;;
71253;SDS011;59019;47.638;18.966;2022-07-30T00:45:10;7.85;;;3.70;;
71253;SDS011;59019;47.638;18.966;2022-07-30T00:47:36;5.88;;;3.95;;
71253;SDS011;59019;47.638;18.966;2022-07-30T00:50:03;6.07;;;4.03;;
71253;SDS011;59019;47.638;18.966;2022-07-30T00:52:31;5.75;;;3.90;;
71253;SDS011;59019;47.638;18.966;2022-07-30T00:54:58;6.78;;;4.25;;
71253;SDS011;59019;47.638;18.966;2022-07-30T00:57:24;6.25;;;3.60;;
71253;SDS011;59019;47.638;18.966;2022-07-30T00:59:51;6.50;;;4.05;;
71253;SDS011;59019;47.638;18.966;2022-07-30T01:02:16;6.80;;;3.95;;
71253;SDS011;59019;47.638;18.966;2022-07-30T01:04:42;8.97;;;4.10;;
71253;SDS011;59019;47.638;18.966;2022-07-30T01:07:09;7.35;;;4.15;;
71253;SDS011;59019;47.638;18.966;2022-07-30T01:09:34;6.15;;;3.90;;
71253;SDS011;59019;47.638;18.966;2022-07-30T01:12:01;7.30;;;4.28;;
71253;SDS011;59019;47.638;18.966;2022-07-30T01:14:27;6.82;;;4.10;;
71253;SDS011;59019;47.638;18.966;2022-07-30T01:16:52;7.10;;;4.18;;
71253;SDS011;59019;47.638;18.966;2022-07-30T01:19:20;6.18;;;3.90;;
71253;SDS011;59019;47.638;18.966;2022-07-30T01:22:11;6.72;;;4.20;;
71253;SDS011;59019;47.638;18.966;2022-07-30T01:24:43;6.75;;;3.80;;
71253;SDS011;59019;47.638;18.966;2022-07-30T01:27:16;6.70;;;3.78;;
71253;SDS011;59019;47.638;18.966;2022-07-30T01:29:43;6.65;;;3.80;;
71253;SDS011;59019;47.638;18.966;2022-07-30T01:32:10;6.72;;;3.65;;
71253;SDS011;59019;47.638;18.966;2022-07-30T01:34:38;5.82;;;3.83;;
71253;SDS011;59019;47.638;18.966;2022-07-30T01:37:05;6.78;;;4.03;;
71253;SDS011;59019;47.638;18.966;2022-07-30T01:39:33;7.05;;;4.30;;
71253;SDS011;59019;47.638;18.966;2022-07-30T01:41:59;7.10;;;4.40;;
71253;SDS011;59019;47.638;18.966;2022-07-30T01:44:29;7.00;;;4.28;;
71253;SDS011;59019;47.638;18.966;2022-07-30T01:46:56;6.43;;;4.47;;
71253;SDS011;59019;47.638;18.966;2022-07-30T01:49:22;6.13;;;4.30;;
71253;SDS011;59019;47.638;18.966;2022-07-30T01:51:49;8.10;;;4.70;;
71253;SDS011;59019;47.638;18.966;2022-07-30T01:54:16;6.75;;;4.30;;
71253;SDS011;59019;47.638;18.966;2022-07-30T01:56:43;6.63;;;4.65;;
71253;SDS011;59019;47.638;18.966;2022-07-30T01:59:11;6.63;;;4.40;;
71253;SDS011;59019;47.638;18.966;2022-07-30T02:01:40;8.18;;;4.68;;
71253;SDS011;59019;47.638;18.966;2022-07-30T02:04:06;7.63;;;4.90;;
71253;SDS011;59019;47.638;18.966;2022-07-30T02:06:36;7.57;;;4.90;;
71253;SDS011;59019;47.638;18.966;2022-07-30T02:09:05;6.93;;;4.60;;
71253;SDS011;59019;47.638;18.966;2022-07-30T02:11:35;8.68;;;4.43;;
71253;SDS011;59019;47.638;18.966;2022-07-30T02:14:25;7.77;;;4.90;;
71253;SDS011;59019;47.638;18.966;2022-07-30T02:16:55;8.38;;;4.85;;
71253;SDS011;59019;47.638;18.966;2022-07-30T02:19:24;8.23;;;4.60;;
71253;SDS011;59019;47.638;18.966;2022-07-30T02:21:59;7.38;;;4.80;;
71253;SDS011;59019;47.638;18.966;2022-07-30T02:24:31;6.53;;;4.35;;
71253;SDS011;59019;47.638;18.966;2022-07-30T02:27:07;8.17;;;4.63;;
71253;SDS011;59019;47.638;18.966;2022-07-30T02:29:38;7.22;;;4.97;;
71253;SDS011;59019;47.638;18.966;2022-07-30T02:32:05;7.35;;;4.85;;
71253;SDS011;59019;47.638;18.966;2022-07-30T02:34:34;7.65;;;5.30;;
71253;SDS011;59019;47.638;18.966;2022-07-30T02:37:03;8.05;;;4.80;;
71253;SDS011;59019;47.638;18.966;2022-07-30T02:39:31;7.13;;;4.70;;
71253;SDS011;59019;47.638;18.966;2022-07-30T02:41:58;7.35;;;4.93;;
71253;SDS011;59019;47.638;18.966;2022-07-30T02:44:25;7.03;;;4.55;;
71253;SDS011;59019;47.638;18.966;2022-07-30T02:46:53;7.47;;;4.80;;
71253;SDS011;59019;47.638;18.966;2022-07-30T02:49:21;6.72;;;4.63;;
71253;SDS011;59019;47.638;18.966;2022-07-30T02:51:48;8.17;;;4.87;;
71253;SDS011;59019;47.638;18.966;2022-07-30T02:54:15;6.22;;;4.32;;
71253;SDS011;59019;47.638;18.966;2022-07-30T02:56:43;6.18;;;4.15;;
71253;SDS011;59019;47.638;18.966;2022-07-30T02:59:13;6.80;;;4.50;;
71253;SDS011;59019;47.638;18.966;2022-07-30T03:01:42;8.65;;;4.55;;
71253;SDS011;59019;47.638;18.966;2022-07-30T03:04:09;7.03;;;4.33;;
71253;SDS011;59019;47.638;18.966;2022-07-30T03:06:36;7.18;;;5.03;;
71253;SDS011;59019;47.638;18.966;2022-07-30T03:09:04;7.65;;;4.75;;
71253;SDS011;59019;47.638;18.966;2022-07-30T03:11:31;8.32;;;4.60;;
71253;SDS011;59019;47.638;18.966;2022-07-30T03:13:58;6.88;;;4.63;;
71253;SDS011;59019;47.638;18.966;2022-07-30T03:16:24;6.80;;;4.20;;
71253;SDS011;59019;47.638;18.966;2022-07-30T03:18:52;8.48;;;4.45;;
71253;SDS011;59019;47.638;18.966;2022-07-30T03:21:19;7.00;;;4.35;;
71253;SDS011;59019;47.638;18.966;2022-07-30T03:23:51;6.90;;;4.13;;
71253;SDS011;59019;47.638;18.966;2022-07-30T03:26:20;7.13;;;4.22;;
71253;SDS011;59019;47.638;18.966;2022-07-30T03:28:48;7.68;;;4.60;;
71253;SDS011;59019;47.638;18.966;2022-07-30T03:31:14;7.53;;;4.20;;
71253;SDS011;59019;47.638;18.966;2022-07-30T03:33:41;8.25;;;4.50;;
71253;SDS011;59019;47.638;18.966;2022-07-30T03:36:07;7.07;;;4.53;;
71253;SDS011;59019;47.638;18.966;2022-07-30T03:38:36;6.30;;;4.18;;
71253;SDS011;59019;47.638;18.966;2022-07-30T03:41:05;7.60;;;4.55;;
71253;SDS011;59019;47.638;18.966;2022-07-30T03:43:32;7.63;;;4.78;;
71253;SDS011;59019;47.638;18.966;2022-07-30T03:46:02;6.97;;;4.20;;
71253;SDS011;59019;47.638;18.966;2022-07-30T03:48:30;7.23;;;4.30;;
71253;SDS011;59019;47.638;18.966;2022-07-30T03:50:57;6.65;;;4.28;;
71253;SDS011;59019;47.638;18.966;2022-07-30T03:53:23;6.43;;;4.22;;
71253;SDS011;59019;47.638;18.966;2022-07-30T03:55:51;7.25;;;4.00;;
71253;SDS011;59019;47.638;18.966;2022-07-30T03:58:19;8.30;;;3.92;;
71253;SDS011;59019;47.638;18.966;2022-07-30T04:00:47;6.60;;;4.10;;
71253;SDS011;59019;47.638;18.966;2022-07-30T04:03:28;7.38;;;4.05;;
71253;SDS011;59019;47.638;18.966;2022-07-30T04:05:55;6.05;;;3.78;;
71253;SDS011;59019;47.638;18.966;2022-07-30T04:08:21;7.53;;;4.40;;
71253;SDS011;59019;47.638;18.966;2022-07-30T04:10:47;6.47;;;3.90;;
71253;SDS011;59019;47.638;18.966;2022-07-30T04:13:13;6.50;;;4.20;;
71253;SDS011;59019;47.638;18.966;2022-07-30T04:15:48;6.15;;;3.72;;
71253;SDS011;59019;47.638;18.966;2022-07-30T04:18:26;6.65;;;4.00;;
71253;SDS011;59019;47.638;18.966;2022-07-30T04:20:58;7.53;;;3.83;;
71253;SDS011;59019;47.638;18.966;2022-07-30T04:23:28;7.47;;;4.43;;
71253;SDS011;59019;47.638;18.966;2022-07-30T04:25:54;7.32;;;3.80;;
71253;SDS011;59019;47.638;18.966;2022-07-30T04:28:20;6.20;;;3.80;;
71253;SDS011;59019;47.638;18.966;2022-07-30T04:30:46;7.07;;;3.80;;
71253;SDS011;59019;47.638;18.966;2022-07-30T04:33:12;6.28;;;3.90;;
71253;SDS011;59019;47.638;18.966;2022-07-30T04:35:37;6.07;;;3.77;;
71253;SDS011;59019;47.638;18.966;2022-07-30T04:38:03;7.57;;;3.90;;
71253;SDS011;59019;47.638;18.966;2022-07-30T04:40:29;6.83;;;3.70;;
71253;SDS011;59019;47.638;18.966;2022-07-30T04:42:55;7.05;;;3.50;;
71253;SDS011;59019;47.638;18.966;2022-07-30T04:45:21;7.10;;;3.78;;
71253;SDS011;59019;47.638;18.966;2022-07-30T04:47:47;7.13;;;3.80;;
71253;SDS011;59019;47.638;18.966;2022-07-30T04:50:13;6.68;;;3.63;;
71253;SDS011;59019;47.638;18.966;2022-07-30T04:52:39;7.18;;;3.88;;
71253;SDS011;59019;47.638;18.966;2022-07-30T04:55:07;7.40;;;3.90;;
71253;SDS011;59019;47.638;18.966;2022-07-30T04:57:35;6.20;;;3.53;;
71253;SDS011;59019;47.638;18.966;2022-07-30T05:00:03;7.13;;;3.50;;
71253;SDS011;59019;47.638;18.966;2022-07-30T05:02:31;6.90;;;4.00;;
71253;SDS011;59019;47.638;18.966;2022-07-30T05:04:59;6.00;;;3.90;;
71253;SDS011;59019;47.638;18.966;2022-07-30T05:07:25;8.23;;;4.07;;
71253;SDS011;59019;47.638;18.966;2022-07-30T05:09:52;6.15;;;3.88;;
71253;SDS011;59019;47.638;18.966;2022-07-30T05:12:18;6.20;;;3.70;;
71253;SDS011;59019;47.638;18.966;2022-07-30T05:14:44;6.57;;;4.03;;
71253;SDS011;59019;47.638;18.966;2022-07-30T05:17:10;6.65;;;3.80;;
71253;SDS011;59019;47.638;18.966;2022-07-30T05:19:35;7.07;;;3.87;;
71253;SDS011;59019;47.638;18.966;2022-07-30T05:22:01;6.88;;;4.40;;
71253;SDS011;59019;47.638;18.966;2022-07-30T05:24:26;7.15;;;3.92;;
71253;SDS011;59019;47.638;18.966;2022-07-30T05:26:52;7.00;;;4.20;;
71253;SDS011;59019;47.638;18.966;2022-07-30T05:29:18;6.82;;;4.07;;
71253;SDS011;59019;47.638;18.966;2022-07-30T05:31:43;7.67;;;4.20;;
71253;SDS011;59019;47.638;18.966;2022-07-30T05:34:09;5.43;;;3.77;;
71253;SDS011;59019;47.638;18.966;2022-07-30T05:36:34;6.50;;;3.90;;
71253;SDS011;59019;47.638;18.966;2022-07-30T05:39:00;5.80;;;4.00;;
71253;SDS011;59019;47.638;18.966;2022-07-30T05:41:26;6.47;;;4.10;;
71253;SDS011;59019;47.638;18.966;2022-07-30T05:43:52;6.93;;;4.13;;
71253;SDS011;59019;47.638;18.966;2022-07-30T05:46:18;6.57;;;4.05;;
71253;SDS011;59019;47.638;18.966;2022-07-30T05:48:43;6.20;;;3.93;;
71253;SDS011;59019;47.638;18.966;2022-07-30T05:51:09;6.10;;;4.07;;
71253;SDS011;59019;47.638;18.966;2022-07-30T05:53:35;6.28;;;4.20;;
71253;SDS011;59019;47.638;18.966;2022-07-30T05:56:00;10.93;;;4.20;;
71253;SDS011;59019;47.638;18.966;2022-07-30T05:58:26;6.43;;;4.03;;
71253;SDS011;59019;47.638;18.966;2022-07-30T06:00:51;5.57;;;3.72;;
71253;SDS011;59019;47.638;18.966;2022-07-30T06:03:17;7.17;;;4.13;;
71253;SDS011;59019;47.638;18.966;2022-07-30T06:05:42;6.90;;;4.07;;
71253;SDS011;59019;47.638;18.966;2022-07-30T06:08:08;7.47;;;3.83;;
71253;SDS011;59019;47.638;18.966;2022-07-30T06:10:33;6.97;;;4.10;;
71253;SDS011;59019;47.638;18.966;2022-07-30T06:12:59;6.87;;;4.20;;
71253;SDS011;59019;47.638;18.966;2022-07-30T06:15:25;6.90;;;4.10;;
71253;SDS011;59019;47.638;18.966;2022-07-30T06:17:50;8.00;;;3.80;;
71253;SDS011;59019;47.638;18.966;2022-07-30T06:20:17;6.45;;;4.00;;
71253;SDS011;59019;47.638;18.966;2022-07-30T06:22:44;5.65;;;3.55;;
71253;SDS011;59019;47.638;18.966;2022-07-30T06:25:10;6.03;;;3.55;;
71253;SDS011;59019;47.638;18.966;2022-07-30T06:27:35;7.70;;;3.65;;
71253;SDS011;59019;47.638;18.966;2022-07-30T06:30:05;5.87;;;3.50;;
71253;SDS011;59019;47.638;18.966;2022-07-30T06:32:32;6.88;;;3.80;;
71253;SDS011;59019;47.638;18.966;2022-07-30T06:34:58;6.63;;;3.58;;
71253;SDS011;59019;47.638;18.966;2022-07-30T06:37:23;5.57;;;3.37;;
71253;SDS011;59019;47.638;18.966;2022-07-30T06:39:49;6.47;;;3.77;;
71253;SDS011;59019;47.638;18.966;2022-07-30T06:42:15;6.30;;;3.50;;
71253;SDS011;59019;47.638;18.966;2022-07-30T06:44:40;5.80;;;3.50;;
71253;SDS011;59019;47.638;18.966;2022-07-30T06:47:06;8.52;;;3.60;;
71253;SDS011;59019;47.638;18.966;2022-07-30T06:49:33;6.18;;;3.45;;
71253;SDS011;59019;47.638;18.966;2022-07-30T06:51:59;5.15;;;3.40;;
71253;SDS011;59019;47.638;18.966;2022-07-30T06:54:25;5.30;;;3.33;;
71253;SDS011;59019;47.638;18.966;2022-07-30T06:56:50;5.95;;;3.35;;
71253;SDS011;59019;47.638;18.966;2022-07-30T06:59:16;5.20;;;3.60;;
71253;SDS011;59019;47.638;18.966;2022-07-30T07:01:42;5.50;;;3.60;;
71253;SDS011;59019;47.638;18.966;2022-07-30T07:04:08;5.20;;;3.10;;
71253;SDS011;59019;47.638;18.966;2022-07-30T07:06:33;6.20;;;3.55;;
71253;SDS011;59019;47.638;18.966;2022-07-30T07:08:59;5.63;;;3.70;;
71253;SDS011;59019;47.638;18.966;2022-07-30T07:11:25;4.90;;;3.47;;
71253;SDS011;59019;47.638;18.966;2022-07-30T07:13:50;5.30;;;3.37;;
71253;SDS011;59019;47.638;18.966;2022-07-30T07:16:16;6.20;;;3.50;;
71253;SDS011;59019;47.638;18.966;2022-07-30T07:18:46;5.28;;;3.65;;
71253;SDS011;59019;47.638;18.966;2022-07-30T07:21:13;5.63;;;3.53;;
71253;SDS011;59019;47.638;18.966;2022-07-30T07:23:39;5.53;;;3.42;;
71253;SDS011;59019;47.638;18.966;2022-07-30T07:26:04;5.23;;;3.33;;
71253;SDS011;59019;47.638;18.966;2022-07-30T07:28:30;5.40;;;3.57;;
71253;SDS011;59019;47.638;18.966;2022-07-30T07:30:55;6.15;;;3.60;;
71253;SDS011;59019;47.638;18.966;2022-07-30T07:33:21;7.00;;;3.33;;
71253;SDS011;59019;47.638;18.966;2022-07-30T07:35:47;6.53;;;3.63;;
71253;SDS011;59019;47.638;18.966;2022-07-30T07:38:12;5.80;;;3.60;;
71253;SDS011;59019;47.638;18.966;2022-07-30T07:40:38;5.70;;;3.73;;
71253;SDS011;59019;47.638;18.966;2022-07-30T07:43:03;6.60;;;3.50;;
71253;SDS011;59019;47.638;18.966;2022-07-30T07:45:29;5.17;;;3.30;;
71253;SDS011;59019;47.638;18.966;2022-07-30T07:47:55;5.50;;;3.55;;
71253;SDS011;59019;47.638;18.966;2022-07-30T07:50:21;5.93;;;3.73;;
71253;SDS011;59019;47.638;18.966;2022-07-30T07:52:47;6.30;;;3.70;;
71253;SDS011;59019;47.638;18.966;2022-07-30T07:55:13;5.93;;;3.45;;
71253;SDS011;59019;47.638;18.966;2022-07-30T07:57:43;9.70;;;4.05;;
71253;SDS011;59019;47.638;18.966;2022-07-30T08:00:10;5.78;;;3.78;;
71253;SDS011;59019;47.638;18.966;2022-07-30T08:02:38;5.90;;;3.80;;
71253;SDS011;59019;47.638;18.966;2022-07-30T08:05:05;6.15;;;3.67;;
71253;SDS011;59019;47.638;18.966;2022-07-30T08:07:31;6.32;;;4.03;;
71253;SDS011;59019;47.638;18.966;2022-07-30T08:09:57;7.50;;;3.90;;
71253;SDS011;59019;47.638;18.966;2022-07-30T08:12:23;7.28;;;4.43;;
71253;SDS011;59019;47.638;18.966;2022-07-30T08:14:48;7.90;;;4.23;;
71253;SDS011;59019;47.638;18.966;2022-07-30T08:17:14;9.88;;;4.55;;
71253;SDS011;59019;47.638;18.966;2022-07-30T08:19:40;14.43;;;5.13;;
71253;SDS011;59019;47.638;18.966;2022-07-30T08:22:05;9.32;;;4.70;;
71253;SDS011;59019;47.638;18.966;2022-07-30T08:24:31;9.77;;;5.00;;
71253;SDS011;59019;47.638;18.966;2022-07-30T08:26:57;9.83;;;5.30;;
71253;SDS011;59019;47.638;18.966;2022-07-30T08:29:22;9.07;;;4.93;;
71253;SDS011;59019;47.638;18.966;2022-07-30T08:31:48;11.30;;;5.50;;
71253;SDS011;59019;47.638;18.966;2022-07-30T08:34:14;9.43;;;5.10;;
71253;SDS011;59019;47.638;18.966;2022-07-30T08:36:39;8.00;;;5.13;;
71253;SDS011;59019;47.638;18.966;2022-07-30T08:39:05;7.68;;;4.45;;
71253;SDS011;59019;47.638;18.966;2022-07-30T08:41:31;8.65;;;4.82;;
71253;SDS011;59019;47.638;18.966;2022-07-30T08:43:57;8.97;;;4.73;;
71253;SDS011;59019;47.638;18.966;2022-07-30T08:46:24;10.07;;;4.80;;
71253;SDS011;59019;47.638;18.966;2022-07-30T08:48:53;7.45;;;4.28;;
71253;SDS011;59019;47.638;18.966;2022-07-30T08:51:19;7.50;;;4.47;;
71253;SDS011;59019;47.638;18.966;2022-07-30T08:53:46;6.43;;;4.25;;
71253;SDS011;59019;47.638;18.966;2022-07-30T08:56:12;6.70;;;4.43;;
71253;SDS011;59019;47.638;18.966;2022-07-30T08:58:38;8.77;;;4.50;;
71253;SDS011;59019;47.638;18.966;2022-07-30T09:01:04;8.85;;;4.68;;
71253;SDS011;59019;47.638;18.966;2022-07-30T09:03:30;9.00;;;4.75;;
71253;SDS011;59019;47.638;18.966;2022-07-30T09:05:59;7.22;;;4.30;;
71253;SDS011;59019;47.638;18.966;2022-07-30T09:08:26;7.00;;;4.38;;
71253;SDS011;59019;47.638;18.966;2022-07-30T09:10:52;6.35;;;4.20;;
71253;SDS011;59019;47.638;18.966;2022-07-30T09:13:28;6.83;;;4.53;;
71253;SDS011;59019;47.638;18.966;2022-07-30T09:15:55;7.47;;;4.20;;
71253;SDS011;59019;47.638;18.966;2022-07-30T09:18:25;7.32;;;4.63;;
71253;SDS011;59019;47.638;18.966;2022-07-30T09:21:00;7.38;;;4.60;;
71253;SDS011;59019;47.638;18.966;2022-07-30T09:23:56;9.80;;;4.90;;
71253;SDS011;59019;47.638;18.966;2022-07-30T09:26:30;7.68;;;5.30;;
71253;SDS011;59019;47.638;18.966;2022-07-30T09:29:16;8.38;;;6.05;;
71253;SDS011;59019;47.638;18.966;2022-07-30T09:31:58;10.18;;;6.80;;
71253;SDS011;59019;47.638;18.966;2022-07-30T09:34:28;11.27;;;7.75;;
71253;SDS011;59019;47.638;18.966;2022-07-30T09:36:56;10.52;;;6.93;;
71253;SDS011;59019;47.638;18.966;2022-07-30T09:39:29;9.85;;;7.10;;
71253;SDS011;59019;47.638;18.966;2022-07-30T09:41:59;10.48;;;7.57;;
71253;SDS011;59019;47.638;18.966;2022-07-30T09:44:27;11.15;;;7.88;;
71253;SDS011;59019;47.638;18.966;2022-07-30T09:46:54;11.25;;;7.53;;
71253;SDS011;59019;47.638;18.966;2022-07-30T09:49:21;10.13;;;7.20;;
71253;SDS011;59019;47.638;18.966;2022-07-30T09:51:51;10.48;;;7.38;;
71253;SDS011;59019;47.638;18.966;2022-07-30T09:54:18;10.20;;;7.93;;
71253;SDS011;59019;47.638;18.966;2022-07-30T09:56:44;10.17;;;7.33;;
71253;SDS011;59019;47.638;18.966;2022-07-30T09:59:24;13.65;;;7.90;;
71253;SDS011;59019;47.638;18.966;2022-07-30T10:01:54;10.20;;;8.00;;
71253;SDS011;59019;47.638;18.966;2022-07-30T10:04:27;9.43;;;7.30;;
71253;SDS011;59019;47.638;18.966;2022-07-30T10:06:55;11.45;;;7.20;;
71253;SDS011;59019;47.638;18.966;2022-07-30T10:09:26;10.63;;;6.43;;
71253;SDS011;59019;47.638;18.966;2022-07-30T10:11:56;12.35;;;6.47;;
71253;SDS011;59019;47.638;18.966;2022-07-30T10:14:24;10.77;;;6.68;;
71253;SDS011;59019;47.638;18.966;2022-07-30T10:16:54;13.93;;;7.13;;
71253;SDS011;59019;47.638;18.966;2022-07-30T10:19:20;11.52;;;6.15;;
71253;SDS011;59019;47.638;18.966;2022-07-30T10:21:47;13.38;;;6.38;;
71253;SDS011;59019;47.638;18.966;2022-07-30T10:24:17;11.35;;;6.22;;
71253;SDS011;59019;47.638;18.966;2022-07-30T10:26:46;9.77;;;5.80;;
71253;SDS011;59019;47.638;18.966;2022-07-30T10:29:16;9.77;;;5.70;;
71253;SDS011;59019;47.638;18.966;2022-07-30T10:31:44;9.75;;;5.88;;
71253;SDS011;59019;47.638;18.966;2022-07-30T10:34:11;12.07;;;6.25;;
71253;SDS011;59019;47.638;18.966;2022-07-30T10:36:42;10.80;;;5.63;;
71253;SDS011;59019;47.638;18.966;2022-07-30T10:39:13;11.20;;;6.18;;
71253;SDS011;59019;47.638;18.966;2022-07-30T10:44:46;11.38;;;5.32;;
71253;SDS011;59019;47.638;18.966;2022-07-30T10:47:27;9.23;;;5.53;;
71253;SDS011;59019;47.638;18.966;2022-07-30T10:52:43;8.63;;;5.53;;
71253;SDS011;59019;47.638;18.966;2022-07-30T10:55:12;9.23;;;5.30;;
71253;SDS011;59019;47.638;18.966;2022-07-30T10:57:55;9.40;;;5.28;;
71253;SDS011;59019;47.638;18.966;2022-07-30T11:00:21;9.45;;;5.10;;
71253;SDS011;59019;47.638;18.966;2022-07-30T11:05:50;8.90;;;4.55;;
71253;SDS011;59019;47.638;18.966;2022-07-30T11:10:54;7.00;;;4.45;;
71253;SDS011;59019;47.638;18.966;2022-07-30T11:13:47;7.43;;;4.90;;
71253;SDS011;59019;47.638;18.966;2022-07-30T11:16:16;7.68;;;5.00;;
71253;SDS011;59019;47.638;18.966;2022-07-30T11:21:29;8.68;;;5.20;;
71253;SDS011;59019;47.638;18.966;2022-07-30T11:23:56;11.18;;;5.20;;
71253;SDS011;59019;47.638;18.966;2022-07-30T11:29:02;6.05;;;3.90;;
71253;SDS011;59019;47.638;18.966;2022-07-30T11:31:30;7.65;;;3.95;;
71253;SDS011;59019;47.638;18.966;2022-07-30T11:37:04;5.80;;;3.75;;
71253;SDS011;59019;47.638;18.966;2022-07-30T11:42:26;5.25;;;3.05;;
71253;SDS011;59019;47.638;18.966;2022-07-30T11:47:42;4.90;;;3.17;;
71253;SDS011;59019;47.638;18.966;2022-07-30T11:52:48;5.30;;;3.90;;
71253;SDS011;59019;47.638;18.966;2022-07-30T11:58:31;5.70;;;3.80;;
71253;SDS011;59019;47.638;18.966;2022-07-30T12:03:29;5.80;;;3.67;;
71253;SDS011;59019;47.638;18.966;2022-07-30T12:06:04;5.38;;;4.03;;
71253;SDS011;59019;47.638;18.966;2022-07-30T12:09:05;5.20;;;2.88;;
71253;SDS011;59019;47.638;18.966;2022-07-30T12:11:33;4.68;;;2.47;;
71253;SDS011;59019;47.638;18.966;2022-07-30T12:13:59;4.70;;;2.67;;
71253;SDS011;59019;47.638;18.966;2022-07-30T12:16:26;4.55;;;2.55;;
71253;SDS011;59019;47.638;18.966;2022-07-30T12:18:52;4.45;;;2.38;;
71253;SDS011;59019;47.638;18.966;2022-07-30T12:21:18;4.13;;;2.47;;
71253;SDS011;59019;47.638;18.966;2022-07-30T12:26:20;4.07;;;2.20;;
71253;SDS011;59019;47.638;18.966;2022-07-30T12:28:49;3.83;;;2.20;;
71253;SDS011;59019;47.638;18.966;2022-07-30T12:31:15;4.50;;;2.10;;
71253;SDS011;59019;47.638;18.966;2022-07-30T12:33:42;3.75;;;2.10;;
71253;SDS011;59019;47.638;18.966;2022-07-30T12:36:07;3.30;;;1.80;;
71253;SDS011;59019;47.638;18.966;2022-07-30T12:38:44;3.20;;;1.50;;
71253;SDS011;59019;47.638;18.966;2022-07-30T12:41:13;3.28;;;1.75;;
71253;SDS011;59019;47.638;18.966;2022-07-30T12:43:42;3.73;;;2.03;;
71253;SDS011;59019;47.638;18.966;2022-07-30T12:46:09;3.88;;;2.13;;
71253;SDS011;59019;47.638;18.966;2022-07-30T12:48:35;3.60;;;2.00;;
71253;SDS011;59019;47.638;18.966;2022-07-30T12:51:04;3.70;;;1.80;;
71253;SDS011;59019;47.638;18.966;2022-07-30T12:53:35;3.13;;;1.70;;
71253;SDS011;59019;47.638;18.966;2022-07-30T12:56:11;3.90;;;1.80;;
71253;SDS011;59019;47.638;18.966;2022-07-30T12:58:38;3.00;;;1.60;;
71253;SDS011;59019;47.638;18.966;2022-07-30T13:01:04;2.97;;;1.33;;
71253;SDS011;59019;47.638;18.966;2022-07-30T13:03:30;2.97;;;1.40;;
71253;SDS011;59019;47.638;18.966;2022-07-30T13:06:10;3.50;;;1.20;;
71253;SDS011;59019;47.638;18.966;2022-07-30T13:11:19;3.25;;;1.20;;
71253;SDS011;59019;47.638;18.966;2022-07-30T13:13:47;4.80;;;1.20;;
71253;SDS011;59019;47.638;18.966;2022-07-30T13:16:14;3.50;;;1.10;;
71253;SDS011;59019;47.638;18.966;2022-07-30T13:18:40;2.80;;;1.00;;
71253;SDS011;59019;47.638;18.966;2022-07-30T13:21:06;5.95;;;1.20;;
71253;SDS011;59019;47.638;18.966;2022-07-30T13:23:36;2.67;;;0.90;;
71253;SDS011;59019;47.638;18.966;2022-07-30T13:26:03;2.80;;;1.00;;
71253;SDS011;59019;47.638;18.966;2022-07-30T13:28:29;3.58;;;0.90;;
71253;SDS011;59019;47.638;18.966;2022-07-30T13:30:56;2.80;;;1.17;;
71253;SDS011;59019;47.638;18.966;2022-07-30T13:33:22;2.80;;;1.08;;
71253;SDS011;59019;47.638;18.966;2022-07-30T13:35:47;3.37;;;1.10;;
71253;SDS011;59019;47.638;18.966;2022-07-30T13:38:13;2.73;;;1.10;;
71253;SDS011;59019;47.638;18.966;2022-07-30T13:40:39;3.25;;;1.27;;
71253;SDS011;59019;47.638;18.966;2022-07-30T13:43:05;3.05;;;1.10;;
71253;SDS011;59019;47.638;18.966;2022-07-30T13:45:31;4.17;;;1.13;;
71253;SDS011;59019;47.638;18.966;2022-07-30T13:47:56;2.92;;;1.08;;
71253;SDS011;59019;47.638;18.966;2022-07-30T13:50:22;3.23;;;1.10;;
71253;SDS011;59019;47.638;18.966;2022-07-30T13:52:48;2.73;;;1.10;;
71253;SDS011;59019;47.638;18.966;2022-07-30T13:55:13;2.83;;;0.90;;
71253;SDS011;59019;47.638;18.966;2022-07-30T13:57:39;4.50;;;1.27;;
71253;SDS011;59019;47.638;18.966;2022-07-30T14:00:05;2.88;;;0.90;;
71253;SDS011;59019;47.638;18.966;2022-07-30T14:02:32;2.88;;;0.88;;
71253;SDS011;59019;47.638;18.966;2022-07-30T14:04:58;3.90;;;0.93;;
71253;SDS011;59019;47.638;18.966;2022-07-30T14:07:24;2.55;;;0.77;;
71253;SDS011;59019;47.638;18.966;2022-07-30T14:09:50;2.05;;;0.63;;
71253;SDS011;59019;47.638;18.966;2022-07-30T14:12:15;3.40;;;0.80;;
71253;SDS011;59019;47.638;18.966;2022-07-30T14:14:41;2.80;;;1.00;;
71253;SDS011;59019;47.638;18.966;2022-07-30T14:17:06;2.55;;;0.90;;
71253;SDS011;59019;47.638;18.966;2022-07-30T14:19:32;4.33;;;0.97;;
71253;SDS011;59019;47.638;18.966;2022-07-30T14:21:58;3.63;;;1.10;;
71253;SDS011;59019;47.638;18.966;2022-07-30T14:24:23;2.88;;;1.08;;
71253;SDS011;59019;47.638;18.966;2022-07-30T14:26:49;2.90;;;1.20;;
71253;SDS011;59019;47.638;18.966;2022-07-30T14:29:15;2.80;;;1.08;;
71253;SDS011;59019;47.638;18.966;2022-07-30T14:31:41;5.30;;;1.40;;
71253;SDS011;59019;47.638;18.966;2022-07-30T14:34:07;3.73;;;1.10;;
71253;SDS011;59019;47.638;18.966;2022-07-30T14:36:33;3.17;;;1.20;;
71253;SDS011;59019;47.638;18.966;2022-07-30T14:38:58;3.53;;;1.27;;
71253;SDS011;59019;47.638;18.966;2022-07-30T14:41:25;3.53;;;1.27;;
71253;SDS011;59019;47.638;18.966;2022-07-30T14:43:52;3.60;;;1.50;;
71253;SDS011;59019;47.638;18.966;2022-07-30T14:46:18;3.00;;;1.50;;
71253;SDS011;59019;47.638;18.966;2022-07-30T14:48:43;4.00;;;1.58;;
71253;SDS011;59019;47.638;18.966;2022-07-30T14:51:09;3.35;;;1.40;;
71253;SDS011;59019;47.638;18.966;2022-07-30T14:53:35;2.97;;;1.40;;
71253;SDS011;59019;47.638;18.966;2022-07-30T14:56:00;3.50;;;1.50;;
71253;SDS011;59019;47.638;18.966;2022-07-30T14:58:26;2.97;;;1.40;;
71253;SDS011;59019;47.638;18.966;2022-07-30T15:00:52;3.03;;;1.30;;
71253;SDS011;59019;47.638;18.966;2022-07-30T15:03:18;2.87;;;1.13;;
71253;SDS011;59019;47.638;18.966;2022-07-30T15:05:44;2.90;;;1.13;;
71253;SDS011;59019;47.638;18.966;2022-07-30T15:08:10;3.15;;;1.15;;
71253;SDS011;59019;47.638;18.966;2022-07-30T15:10:35;3.10;;;1.20;;
71253;SDS011;59019;47.638;18.966;2022-07-30T15:13:01;3.33;;;1.20;;
71253;SDS011;59019;47.638;18.966;2022-07-30T15:15:26;2.70;;;1.10;;